Time;durP1;ratioP1;P1;durP2;ratioP2;P2;SDS_P1;SDS_P2;PMS_P1;PMS_P2;Temp;Humidity;BMP_temperature;BMP_pressure;BME280_temperature;BME280_humidity;BME280_pressure;Samples;Min_cycle;Max_cycle;Signal;HPM_P1;HPM_P2
2022/07/23 00:02:25;;;;;;;7.32;6.63;;;;;;;23.27;74.15;99822.34;5017279;28;20095;-80
2022/07/23 00:04:50;;;;;;;9.15;7.18;;;;;;;23.22;74.97;99817.50;5051665;28;20510;-80
2022/07/23 00:07:16;;;;;;;8.05;7.25;;;;;;;23.14;74.96;99813.72;5033729;28;20569;-80
2022/07/23 00:09:42;;;;;;;7.93;7.20;;;;;;;23.13;74.66;99812.97;5032815;28;20037;-80
2022/07/23 00:12:07;;;;;;;7.80;7.00;;;;;;;23.04;75.54;99810.50;5017440;28;20041;-80
2022/07/23 00:14:33;;;;;;;7.88;6.97;;;;;;;23.11;74.41;99815.56;5013771;28;20038;-80
2022/07/23 00:16:58;;;;;;;7.90;7.20;;;;;;;23.11;74.37;99812.75;5031840;28;20398;-80
2022/07/23 00:19:24;;;;;;;8.32;6.90;;;;;;;23.06;73.68;99816.38;5031528;28;20045;-80
2022/07/23 00:21:49;;;;;;;7.60;6.70;;;;;;;23.02;75.10;99813.09;5030212;28;20033;-80
2022/07/23 00:24:15;;;;;;;8.38;7.05;;;;;;;22.99;75.35;99814.16;5014314;28;20104;-80
2022/07/23 00:26:41;;;;;;;10.80;7.65;;;;;;;23.00;74.94;99815.69;5033811;28;20045;-80
2022/07/23 00:29:06;;;;;;;8.60;6.78;;;;;;;23.00;74.45;99809.25;5000740;28;20414;-80
2022/07/23 00:31:32;;;;;;;7.45;6.72;;;;;;;22.99;74.15;99811.31;5017141;28;20501;-80
2022/07/23 00:34:00;;;;;;;7.93;7.10;;;;;;;22.96;74.17;99809.53;5033589;28;20045;-80
2022/07/23 00:36:27;;;;;;;7.90;7.05;;;;;;;22.96;74.33;99818.03;5051112;28;20037;-80
2022/07/23 00:38:53;;;;;;;7.18;6.47;;;;;;;22.89;76.47;99810.09;5051137;28;20049;-80
2022/07/23 00:41:19;;;;;;;7.50;6.45;;;;;;;22.83;77.28;99815.06;5016391;28;20584;-80
2022/07/23 00:43:44;;;;;;;8.02;7.03;;;;;;;22.75;78.01;99806.38;4997011;28;20083;-80
2022/07/23 00:46:10;;;;;;;7.60;6.90;;;;;;;22.71;78.69;99814.38;5029767;28;20038;-80
2022/07/23 00:48:35;;;;;;;7.47;6.63;;;;;;;22.69;77.72;99807.72;5031412;28;20041;-80
2022/07/23 00:51:01;;;;;;;8.13;7.25;;;;;;;22.69;77.85;99810.53;5029700;28;20124;-80
2022/07/23 00:53:27;;;;;;;7.30;6.55;;;;;;;22.61;78.60;99801.06;5030040;28;20506;-80
2022/07/23 00:55:53;;;;;;;8.63;7.00;;;;;;;22.55;78.76;99803.94;5014927;28;20042;-80
2022/07/23 00:58:19;;;;;;;9.93;6.97;;;;;;;22.54;78.64;99801.63;5050519;28;20094;-80
2022/07/23 01:06:14;;;;;;;8.90;7.05;;;;;;;22.39;79.93;99795.59;5029591;28;20110;-83
2022/07/23 01:08:40;;;;;;;8.40;6.82;;;;;;;22.29;80.41;99792.28;5030972;28;20126;-83
2022/07/23 01:11:07;;;;;;;7.60;6.80;;;;;;;22.23;80.09;99789.53;5012919;28;20045;-83
2022/07/23 01:13:33;;;;;;;7.82;7.05;;;;;;;22.26;79.30;99790.53;5013080;28;20045;-84
2022/07/23 01:15:58;;;;;;;8.65;6.93;;;;;;;22.17;81.13;99785.19;5030784;28;20026;-83
2022/07/23 01:18:24;;;;;;;9.48;7.57;;;;;;;22.07;81.77;99784.75;5012865;28;20038;-83
2022/07/23 01:20:49;;;;;;;9.07;6.70;;;;;;;22.08;80.21;99777.78;5003020;28;20049;-84
2022/07/23 01:23:15;;;;;;;8.70;6.70;;;;;;;22.00;79.64;99776.81;5013096;28;20049;-83
2022/07/23 01:25:52;;;;;;;9.40;6.85;;;;;;;22.03;79.50;99775.78;5013196;28;20500;-83
2022/07/23 01:28:17;;;;;;;8.27;7.22;;;;;;;22.03;80.52;99772.19;5012917;28;20065;-83
2022/07/23 01:30:46;;;;;;;8.63;6.82;;;;;;;21.97;81.59;99766.56;5012963;28;20033;-83
2022/07/23 01:33:12;;;;;;;8.40;7.20;;;;;;;21.95;82.25;99780.44;5012214;28;20092;-83
2022/07/23 01:35:37;;;;;;;7.93;7.10;;;;;;;21.93;82.62;99779.41;5012804;28;20088;-83
2022/07/23 01:38:05;;;;;;;7.60;6.70;;;;;;;21.91;82.02;99768.63;5012357;28;20454;-83
2022/07/23 01:40:31;;;;;;;9.32;6.60;;;;;;;21.98;80.83;99779.41;5012961;28;20037;-83
2022/07/23 01:42:57;;;;;;;7.40;6.70;;;;;;;21.98;80.28;99779.41;5012671;28;20042;-83
2022/07/23 01:45:23;;;;;;;8.05;7.25;;;;;;;21.92;81.85;99770.19;5030816;28;20489;-83
2022/07/23 02:25:18;;;;;;;8.65;7.30;;;;;;;21.28;84.26;99771.44;5045073;28;20049;-85
2022/07/23 02:27:44;;;;;;;8.38;6.72;;;;;;;21.27;82.62;99758.66;5032315;28;20045;-85
2022/07/23 02:30:10;;;;;;;8.50;6.88;;;;;;;21.31;82.34;99762.72;5049913;28;20045;-85
2022/07/23 02:32:36;;;;;;;8.55;7.10;;;;;;;21.26;83.11;99749.41;5050371;28;20627;-85
2022/07/23 02:35:02;;;;;;;9.85;7.45;;;;;;;21.26;83.09;99769.16;5035786;28;20029;-85
2022/07/23 02:37:27;;;;;;;8.45;7.53;;;;;;;21.28;82.43;99762.97;5053558;28;20173;-85
2022/07/23 02:39:53;;;;;;;10.50;6.97;;;;;;;21.26;84.30;99763.53;5053682;28;20582;-81
2022/07/23 02:42:19;;;;;;;8.68;7.03;;;;;;;21.17;84.64;99758.16;5053810;28;20051;-85
2022/07/23 02:44:44;;;;;;;8.55;7.55;;;;;;;21.23;85.32;99761.72;5053870;28;20115;-84
2022/07/23 02:47:10;;;;;;;8.75;7.32;;;;;;;21.16;85.69;99755.84;5053474;28;20055;-85
2022/07/23 02:49:36;;;;;;;8.15;7.05;;;;;;;21.11;85.80;99748.91;5035545;28;20180;-85
2022/07/23 02:52:04;;;;;;;7.63;6.90;;;;;;;21.11;85.53;99754.53;5035221;28;20044;-81
2022/07/23 02:54:30;;;;;;;9.25;7.43;;;;;;;21.11;84.56;99765.81;5035782;28;20045;-80
2022/07/23 02:56:56;;;;;;;7.85;6.97;;;;;;;21.05;84.24;99745.34;5053335;28;20040;-80
2022/07/23 02:59:21;;;;;;;7.63;6.72;;;;;;;21.02;85.50;99757.66;5053516;28;20374;-80
2022/07/23 03:01:47;;;;;;;8.77;6.88;;;;;;;21.02;86.09;99757.66;5053114;28;20045;-80
2022/07/23 03:04:13;;;;;;;9.57;7.63;;;;;;;20.94;87.54;99751.00;5051384;28;20544;-80
2022/07/23 03:06:41;;;;;;;7.82;7.03;;;;;;;20.95;86.17;99746.88;5035927;28;20425;-80
2022/07/23 03:09:06;;;;;;;8.80;7.88;;;;;;;20.97;85.00;99749.19;5052702;28;20044;-80
2022/07/23 03:11:32;;;;;;;8.68;7.32;;;;;;;20.95;85.79;99746.88;5051999;28;20480;-80
2022/07/23 03:13:58;;;;;;;9.10;7.43;;;;;;;20.89;86.99;99754.59;5034853;28;20029;-84
2022/07/23 03:16:23;;;;;;;9.48;7.70;;;;;;;20.88;85.58;99747.41;5053519;28;20045;-84
2022/07/23 03:18:49;;;;;;;9.50;7.43;;;;;;;20.86;86.58;99750.00;5051722;28;20132;-84
2022/07/23 03:21:15;;;;;;;11.07;7.50;;;;;;;20.85;88.71;99754.09;5052984;28;20044;-84
2022/07/23 03:23:40;;;;;;;8.60;7.78;;;;;;;20.88;89.50;99747.41;5055114;28;20489;-84
2022/07/23 03:26:06;;;;;;;8.77;7.30;;;;;;;20.84;88.58;99744.84;5054841;28;20087;-84
2022/07/23 03:28:32;;;;;;;10.45;7.88;;;;;;;20.87;89.33;99748.69;5072004;28;20040;-84
2022/07/23 03:30:58;;;;;;;8.10;7.40;;;;;;;20.88;90.49;99745.38;5054859;28;20037;-85
2022/07/23 03:33:23;;;;;;;10.02;7.93;;;;;;;20.89;89.97;99755.38;5072679;28;20309;-84
2022/07/23 03:35:49;;;;;;;9.07;7.97;;;;;;;20.92;91.21;99754.31;5054511;28;20128;-84
2022/07/23 03:38:20;;;;;;;8.25;7.30;;;;;;;20.98;89.83;99751.50;5054282;28;20528;-85
2022/07/23 03:40:45;;;;;;;9.70;8.10;;;;;;;21.06;89.91;99752.50;5054651;28;20056;-84
2022/07/23 03:43:11;;;;;;;9.30;8.35;;;;;;;21.16;89.95;99755.84;5072457;28;20049;-84
2022/07/23 03:45:36;;;;;;;8.90;8.00;;;;;;;21.22;90.41;99763.00;5054634;28;20044;-84
2022/07/23 03:48:03;;;;;;;9.50;8.60;;;;;;;21.23;90.07;99760.97;5054343;28;20033;-85
2022/07/23 03:50:28;;;;;;;11.52;8.50;;;;;;;21.26;90.45;99754.28;5053985;28;20142;-85
2022/07/23 03:52:54;;;;;;;10.40;8.30;;;;;;;21.29;90.42;99759.66;5072268;28;20102;-85
2022/07/23 03:55:20;;;;;;;12.52;9.27;;;;;;;21.38;90.06;99761.44;5053947;28;20040;-85
2022/07/23 03:57:45;;;;;;;9.73;8.57;;;;;;;21.42;89.48;99761.94;5072097;28;20544;-85
2022/07/23 04:00:12;;;;;;;10.30;9.20;;;;;;;21.46;89.19;99756.78;5052542;28;20106;-85
2022/07/23 04:02:42;;;;;;;9.82;8.38;;;;;;;21.52;88.92;99760.34;5051998;28;20068;-85
2022/07/23 04:05:09;;;;;;;11.80;8.63;;;;;;;21.56;91.48;99754.41;5053713;28;20112;-84
2022/07/23 04:07:35;;;;;;;10.60;7.97;;;;;;;21.51;90.97;99767.28;5054121;28;20036;-85
2022/07/23 04:10:01;;;;;;;14.82;8.77;;;;;;;21.50;90.62;99765.75;5053434;28;20563;-85
2022/07/23 04:12:26;;;;;;;10.30;7.82;;;;;;;21.48;89.80;99754.19;5071656;28;20481;-85
2022/07/23 04:14:53;;;;;;;12.48;7.82;;;;;;;21.57;89.20;99755.97;5053855;28;20493;-85
2022/07/23 04:17:18;;;;;;;12.13;7.78;;;;;;;21.64;87.74;99749.75;5071628;28;20043;-85
2022/07/23 04:19:44;;;;;;;9.63;8.57;;;;;;;21.65;90.06;99751.31;5053640;28;20040;-85
2022/07/23 04:22:11;;;;;;;11.45;9.80;;;;;;;21.70;91.48;99747.69;5053645;28;20135;-85
2022/07/23 04:24:38;;;;;;;13.40;9.30;;;;;;;21.73;92.59;99741.00;5036688;28;20048;-85
2022/07/23 04:27:04;;;;;;;10.32;8.90;;;;;;;21.81;91.99;99751.22;5033466;28;20533;-84
2022/07/23 04:29:31;;;;;;;10.57;8.98;;;;;;;21.86;92.17;99744.00;5017073;28;20049;-84
2022/07/23 04:31:57;;;;;;;10.25;9.25;;;;;;;21.96;92.65;99748.06;5051712;28;20044;-81
2022/07/23 04:34:22;;;;;;;12.02;8.63;;;;;;;22.07;90.86;99753.69;5016761;28;20437;-81
2022/07/23 04:36:48;;;;;;;9.30;8.30;;;;;;;22.16;89.43;99744.88;5035001;28;20032;-81
2022/07/23 04:39:14;;;;;;;9.15;8.35;;;;;;;22.31;89.34;99762.25;5069798;28;20125;-81
2022/07/23 04:41:41;;;;;;;9.77;8.88;;;;;;;22.31;90.24;99745.28;5053649;28;20061;-82
2022/07/23 04:44:06;;;;;;;10.27;9.18;;;;;;;22.40;90.93;99763.22;5071012;28;20024;-81
2022/07/23 04:46:33;;;;;;;9.60;8.68;;;;;;;22.41;90.74;99764.72;5053023;28;20051;-85
2022/07/23 04:48:58;;;;;;;10.27;9.05;;;;;;;22.52;89.51;99773.91;5071033;28;20037;-81
2022/07/23 04:51:24;;;;;;;10.27;9.02;;;;;;;22.56;90.72;99765.16;5053305;28;20477;-82
2022/07/23 04:53:51;;;;;;;10.77;8.85;;;;;;;22.67;90.67;99776.34;5053276;28;20044;-82
2022/07/23 04:56:17;;;;;;;9.65;8.75;;;;;;;22.77;90.71;99769.06;5069983;28;20026;-81
2022/07/23 04:58:42;;;;;;;9.63;8.73;;;;;;;22.86;91.67;99777.22;5070760;28;20095;-81
2022/07/23 05:01:08;;;;;;;9.07;8.27;;;;;;;22.91;91.04;99767.94;5052054;28;20043;-81
2022/07/23 05:03:35;;;;;;;10.88;8.77;;;;;;;23.01;90.57;99771.94;5052967;28;20048;-81
2022/07/23 05:06:00;;;;;;;9.80;8.90;;;;;;;23.09;90.46;99777.81;5070903;28;20028;-81
2022/07/23 05:08:26;;;;;;;11.20;8.57;;;;;;;23.19;89.27;99782.56;5070769;28;20036;-85
2022/07/23 05:10:54;;;;;;;13.23;9.32;;;;;;;23.33;90.27;99782.69;5052569;28;20048;-85
2022/07/23 05:13:23;;;;;;;9.00;8.10;;;;;;;23.40;88.92;99790.59;5052596;28;20048;-85
2022/07/23 05:15:51;;;;;;;10.38;8.32;;;;;;;23.48;89.66;99785.88;5052981;28;20143;-85
2022/07/23 05:18:17;;;;;;;9.55;8.55;;;;;;;23.59;88.43;99785.75;5052805;28;20572;-85
2022/07/23 05:20:43;;;;;;;11.77;8.60;;;;;;;23.73;87.76;99793.06;5053022;28;20047;-85
2022/07/23 05:23:10;;;;;;;10.60;8.60;;;;;;;23.87;87.34;99789.00;5036321;28;20037;-85
2022/07/23 05:25:36;;;;;;;9.48;8.48;;;;;;;24.01;86.47;99796.28;5052119;28;20090;-84
2022/07/23 05:28:02;;;;;;;8.82;7.95;;;;;;;24.15;85.51;99789.41;5052277;28;20044;-85
2022/07/23 05:30:28;;;;;;;9.75;8.38;;;;;;;24.30;85.49;99791.78;5070606;28;20509;-84
2022/07/23 05:32:58;;;;;;;11.35;8.52;;;;;;;24.54;84.20;99794.50;5036781;28;20459;-85
2022/07/23 05:35:23;;;;;;;9.32;8.18;;;;;;;24.69;83.36;99796.06;5069086;28;20032;-85
2022/07/23 05:38:07;;;;;;;12.95;8.07;;;;;;;24.73;83.84;99800.13;5052423;28;20515;-84
2022/07/23 05:40:34;;;;;;;9.85;8.63;;;;;;;24.87;83.26;99804.53;5052666;28;20060;-84
2022/07/23 05:42:59;;;;;;;10.98;8.10;;;;;;;24.86;84.68;99805.09;5070666;28;20124;-85
2022/07/23 05:45:25;;;;;;;14.07;9.18;;;;;;;24.99;84.20;99805.88;5052451;28;20039;-84
2022/07/23 05:47:51;;;;;;;10.60;9.40;;;;;;;25.16;83.86;99807.66;5052329;28;20528;-81
2022/07/23 05:50:35;;;;;;;10.63;9.43;;;;;;;25.26;83.30;99805.94;5052062;28;20040;-81
2022/07/23 05:53:09;;;;;;;9.07;8.25;;;;;;;25.61;80.75;99805.50;5051948;28;20040;-81
2022/07/23 05:56:13;;;;;;;9.82;8.82;;;;;;;25.82;80.95;99806.38;5064560;28;20048;-81
2022/07/23 05:58:39;;;;;;;10.18;8.65;;;;;;;25.93;79.67;99803.28;5052555;28;20563;-81
2022/07/23 06:01:05;;;;;;;10.15;8.63;;;;;;;26.16;79.79;99799.97;5051932;28;20036;-81
2022/07/23 06:03:39;;;;;;;15.40;8.68;;;;;;;26.39;79.02;99806.69;5052766;28;20029;-84
2022/07/23 06:06:05;;;;;;;13.70;8.45;;;;;;;26.74;77.04;99820.31;5052365;28;20033;-81
2022/07/23 06:08:31;;;;;;;10.05;8.38;;;;;;;26.97;74.75;99808.44;5055341;28;20032;-81
2022/07/23 06:10:59;;;;;;;10.63;7.93;;;;;;;27.26;71.38;99824.19;5078922;28;20045;-81
2022/07/23 06:13:24;;;;;;;11.65;8.25;;;;;;;27.56;70.11;99813.06;5056050;28;20037;-81
2022/07/23 06:15:50;;;;;;;12.15;8.70;;;;;;;27.59;70.60;99817.63;5073762;28;20044;-81
2022/07/23 06:18:15;;;;;;;8.93;8.05;;;;;;;27.79;70.64;99813.94;5039130;28;20040;-81
2022/07/23 06:20:41;;;;;;;9.45;8.38;;;;;;;27.86;70.07;99806.00;5072739;28;20052;-83
2022/07/23 06:23:07;;;;;;;8.95;7.97;;;;;;;27.97;69.87;99806.44;5055793;28;20051;-83
2022/07/23 06:25:33;;;;;;;9.20;8.30;;;;;;;28.30;69.82;99815.31;5052313;28;20037;-83
2022/07/23 06:27:59;;;;;;;10.98;8.13;;;;;;;28.51;68.46;99808.13;5035883;28;20536;-83
2022/07/23 06:30:26;;;;;;;9.00;8.20;;;;;;;28.48;67.89;99814.97;5035636;28;20390;-84
2022/07/23 06:32:51;;;;;;;9.32;7.90;;;;;;;28.36;68.85;99813.03;5053807;28;20041;-83
2022/07/23 06:35:17;;;;;;;11.85;8.65;;;;;;;28.44;68.67;99791.00;5053808;28;20500;-83
2022/07/23 06:37:45;;;;;;;10.85;8.13;;;;;;;28.54;68.27;99800.53;5052353;28;20520;-83
2022/07/23 06:40:12;;;;;;;9.75;8.43;;;;;;;28.67;67.28;99803.97;5064435;28;20041;-84
2022/07/23 06:42:39;;;;;;;11.25;8.70;;;;;;;28.94;66.41;99793.00;5055882;28;20128;-83
2022/07/23 06:45:06;;;;;;;11.85;8.45;;;;;;;29.12;63.18;99791.84;5055392;28;20120;-83
2022/07/23 06:47:33;;;;;;;10.82;7.93;;;;;;;28.90;64.29;99786.13;5055581;28;20033;-83
2022/07/23 06:50:00;;;;;;;10.38;7.72;;;;;;;28.70;60.53;99779.28;5055534;28;20455;-83
2022/07/23 06:52:26;;;;;;;8.93;8.02;;;;;;;28.45;62.82;99804.72;5055297;28;20074;-83
2022/07/23 06:54:52;;;;;;;8.43;7.68;;;;;;;28.58;62.09;99795.22;5038792;28;20032;-83
2022/07/23 06:57:17;;;;;;;9.65;7.35;;;;;;;28.89;58.30;99790.31;5073220;28;20171;-85
2022/07/23 06:59:43;;;;;;;13.00;7.45;;;;;;;29.13;57.63;99786.88;5055389;28;20123;-85
2022/07/23 07:02:09;;;;;;;12.90;10.38;;;;;;;29.46;58.80;99785.72;5068201;28;20041;-84
2022/07/23 07:04:34;;;;;;;9.02;7.53;;;;;;;29.53;57.88;99778.47;5035373;28;20087;-81
2022/07/23 07:07:00;;;;;;;12.48;7.60;;;;;;;29.70;57.47;99781.47;5053242;28;20029;-81
2022/07/23 07:09:26;;;;;;;8.68;7.68;;;;;;;29.97;56.44;99785.38;5061626;28;20041;-81
2022/07/23 07:11:52;;;;;;;8.30;7.40;;;;;;;30.15;55.09;99774.81;5073027;28;20135;-81
2022/07/23 07:14:17;;;;;;;8.98;7.63;;;;;;;29.91;54.75;99784.09;5054951;28;20409;-82
2022/07/23 07:16:43;;;;;;;8.88;7.15;;;;;;;30.20;52.04;99781.66;5073111;28;20032;-81
2022/07/23 07:19:09;;;;;;;10.90;6.60;;;;;;;30.29;50.33;99781.06;5071525;28;20179;-84
2022/07/23 07:21:34;;;;;;;10.05;7.45;;;;;;;30.42;50.60;99775.78;5072927;28;20051;-81
2022/07/23 07:24:00;;;;;;;7.70;6.65;;;;;;;30.71;48.42;99784.03;5072247;28;20040;-81
2022/07/23 07:26:26;;;;;;;11.90;7.13;;;;;;;30.81;48.76;99776.31;5072379;28;20046;-81
2022/07/23 07:28:52;;;;;;;8.88;7.00;;;;;;;30.93;47.34;99785.97;5072899;28;20506;-81
2022/07/23 07:31:17;;;;;;;7.95;6.28;;;;;;;30.82;46.73;99766.38;5072429;28;20048;-81
2022/07/23 07:33:43;;;;;;;11.73;6.80;;;;;;;31.00;46.82;99779.44;5072824;28;20051;-81
2022/07/23 07:36:08;;;;;;;9.85;6.72;;;;;;;31.30;46.23;99781.25;5072102;28;20580;-80
2022/07/23 07:38:34;;;;;;;9.07;6.97;;;;;;;31.24;45.54;99784.38;5037802;28;20521;-81
2022/07/23 07:40:59;;;;;;;9.73;6.57;;;;;;;31.59;45.31;99775.81;5052361;28;20452;-81
2022/07/23 07:43:25;;;;;;;9.27;6.25;;;;;;;31.66;44.94;99786.44;5052040;28;20514;-81
2022/07/23 07:45:51;;;;;;;10.15;6.50;;;;;;;31.69;44.43;99776.66;5052304;28;20041;-82
2022/07/23 07:48:16;;;;;;;9.77;6.60;;;;;;;31.66;44.98;99777.84;5050645;28;20493;-82
2022/07/23 07:50:42;;;;;;;10.10;6.75;;;;;;;32.04;45.17;99786.72;5051205;28;20106;-81
2022/07/23 07:53:08;;;;;;;8.13;6.63;;;;;;;32.26;43.85;99779.97;5057263;28;20045;-81
2022/07/23 07:55:34;;;;;;;7.97;6.97;;;;;;;32.23;43.76;99786.88;5054427;28;20284;-81
2022/07/23 07:58:00;;;;;;;10.30;6.75;;;;;;;32.31;43.54;99767.44;5072033;28;20037;-81
2022/07/23 08:00:26;;;;;;;7.85;6.70;;;;;;;32.34;44.43;99783.50;5071745;28;20040;-80
2022/07/23 08:02:54;;;;;;;7.47;6.63;;;;;;;32.29;43.33;99781.63;5072005;28;20068;-83
2022/07/23 08:05:24;;;;;;;9.57;6.43;;;;;;;32.29;44.62;99778.78;5070290;28;20053;-82
2022/07/23 08:07:49;;;;;;;9.18;6.25;;;;;;;32.50;44.11;99786.13;5053484;28;20131;-80
2022/07/23 08:10:15;;;;;;;6.75;6.05;;;;;;;32.80;43.28;99782.81;5071241;28;20170;-82
2022/07/23 08:12:53;;;;;;;9.43;6.63;;;;;;;32.47;44.44;99776.59;5053869;28;20044;-81
2022/07/23 08:15:20;;;;;;;13.02;6.65;;;;;;;32.53;46.29;99779.94;5071278;28;20037;-79
2022/07/23 08:17:46;;;;;;;9.95;6.00;;;;;;;32.67;43.30;99786.09;5071701;28;20116;-81
2022/07/23 08:20:13;;;;;;;7.03;6.32;;;;;;;32.57;43.47;99791.75;5071077;28;20044;-83
2022/07/23 08:22:48;;;;;;;10.38;6.43;;;;;;;32.54;43.93;99792.97;5053514;28;20134;-84
2022/07/23 08:25:15;;;;;;;8.32;6.00;;;;;;;32.41;44.49;99790.47;5049831;28;20044;-84
2022/07/23 08:27:40;;;;;;;10.43;7.03;;;;;;;32.56;44.14;99792.34;5051601;28;20512;-84
2022/07/23 08:30:06;;;;;;;8.20;6.25;;;;;;;32.98;42.99;99798.59;5051526;28;20045;-83
2022/07/23 08:32:32;;;;;;;7.85;5.53;;;;;;;33.49;43.00;99799.63;5050976;28;20053;-84
2022/07/23 08:34:58;;;;;;;7.95;6.53;;;;;;;33.59;42.15;99794.66;5051663;28;20041;-84
2022/07/23 08:37:23;;;;;;;6.50;5.90;;;;;;;33.69;41.44;99784.69;5050978;28;20029;-83
2022/07/23 08:39:49;;;;;;;7.65;6.20;;;;;;;33.85;40.51;99788.00;5051222;28;20048;-80
2022/07/23 08:42:14;;;;;;;7.80;6.13;;;;;;;33.39;42.03;99790.25;5050998;28;20414;-80
2022/07/23 08:44:46;;;;;;;8.00;5.90;;;;;;;33.71;41.57;99796.38;5051410;28;20033;-80
2022/07/23 08:47:12;;;;;;;7.13;5.93;;;;;;;33.86;41.12;99797.41;5051080;28;20052;-81
2022/07/23 08:49:38;;;;;;;8.40;6.43;;;;;;;33.83;40.29;99802.25;5050037;28;20029;-80
2022/07/23 08:52:04;;;;;;;9.65;6.07;;;;;;;33.65;42.64;99798.78;5049713;28;20049;-81
2022/07/23 08:54:31;;;;;;;8.15;5.93;;;;;;;34.16;40.70;99803.31;5051050;28;20080;-83
2022/07/23 08:56:57;;;;;;;9.32;6.38;;;;;;;34.18;41.71;99794.81;5051410;28;20045;-84
2022/07/23 08:59:22;;;;;;;6.78;6.07;;;;;;;34.10;41.08;99793.44;5050657;28;20167;-84
2022/07/23 09:01:47;;;;;;;7.13;6.40;;;;;;;34.42;40.89;99787.19;5049988;28;20041;-84
2022/07/23 09:04:13;;;;;;;8.52;6.40;;;;;;;34.28;40.38;99779.66;5050838;28;20455;-84
2022/07/23 09:06:39;;;;;;;10.13;6.07;;;;;;;34.08;40.36;99778.91;5051006;28;20410;-84
2022/07/23 09:09:19;;;;;;;9.63;6.40;;;;;;;34.41;39.53;99782.06;5050944;28;20033;-84
2022/07/23 09:11:48;;;;;;;12.50;6.82;;;;;;;34.74;38.82;99776.50;5051011;28;20174;-84
2022/07/23 09:14:14;;;;;;;7.50;6.80;;;;;;;34.74;40.30;99774.34;5032557;28;20214;-84
2022/07/23 09:16:39;;;;;;;8.35;6.53;;;;;;;35.09;38.77;99780.41;5051055;28;20037;-81
2022/07/23 09:19:06;;;;;;;9.40;6.50;;;;;;;35.04;38.42;99785.13;5050879;28;20498;-81
2022/07/23 09:21:33;;;;;;;8.95;6.90;;;;;;;34.92;40.19;99784.28;5050231;28;20144;-81
2022/07/23 09:24:20;;;;;;;9.73;6.22;;;;;;;35.19;40.85;99758.06;5055536;28;20449;-81
2022/07/23 09:26:46;;;;;;;9.15;6.65;;;;;;;35.22;37.59;99771.25;5071086;28;20041;-81
2022/07/23 09:29:17;;;;;;;8.38;7.13;;;;;;;35.39;37.45;99782.50;5070326;28;20045;-81
2022/07/23 09:31:47;;;;;;;9.50;6.53;;;;;;;35.34;37.54;99785.75;5071040;28;20056;-81
2022/07/23 09:34:14;;;;;;;7.25;6.55;;;;;;;35.18;39.09;99773.88;5070826;28;20071;-81
2022/07/23 09:36:40;;;;;;;7.60;6.80;;;;;;;35.20;38.64;99773.25;5070470;28;20041;-81
2022/07/23 09:39:06;;;;;;;9.80;7.15;;;;;;;35.45;37.77;99782.19;5070592;28;20237;-81
2022/07/23 09:41:46;;;;;;;9.77;6.80;;;;;;;35.72;38.05;99782.59;5070727;28;20095;-80
2022/07/23 09:44:17;;;;;;;8.73;6.80;;;;;;;35.64;37.59;99773.38;5074848;28;20048;-80
2022/07/23 09:46:48;;;;;;;7.87;6.43;;;;;;;35.28;38.23;99773.78;5075001;28;20464;-81
2022/07/23 09:49:16;;;;;;;8.07;6.22;;;;;;;35.55;38.63;99774.94;5074890;28;20359;-81
2022/07/23 09:51:46;;;;;;;7.53;6.70;;;;;;;36.09;38.65;99777.09;5074269;28;20032;-84
2022/07/23 09:54:35;;;;;;;8.25;7.05;;;;;;;36.11;35.74;99770.72;5074294;28;20385;-84
2022/07/23 09:57:05;;;;;;;7.38;6.63;;;;;;;36.18;37.38;99763.97;5056893;28;20044;-84
2022/07/23 09:59:34;;;;;;;8.15;7.35;;;;;;;36.52;36.72;99766.13;5073983;28;20087;-84
2022/07/23 10:01:59;;;;;;;8.55;7.10;;;;;;;36.75;35.53;99769.09;5056507;28;20041;-84
2022/07/23 10:04:27;;;;;;;9.25;7.55;;;;;;;36.05;35.18;99759.50;5073917;28;20040;-84
2022/07/23 10:07:13;;;;;;;8.13;7.32;;;;;;;36.09;35.79;99761.88;5074839;28;20120;-84
2022/07/23 10:09:58;;;;;;;9.13;8.25;;;;;;;35.85;33.38;99756.06;5073598;28;20039;-84
2022/07/23 10:15:28;;;;;;;8.48;7.68;;;;;;;36.23;33.73;99759.97;5041480;28;20044;-84
2022/07/23 10:17:53;;;;;;;8.38;7.68;;;;;;;35.93;34.18;99752.94;5074281;28;20417;-84
2022/07/23 10:20:19;;;;;;;9.15;8.27;;;;;;;36.47;34.52;99750.69;5056022;28;20033;-84
2022/07/23 10:22:50;;;;;;;12.23;7.95;;;;;;;36.44;33.92;99748.28;5074280;28;20052;-84
2022/07/23 10:25:24;;;;;;;8.27;7.47;;;;;;;36.82;34.14;99750.72;5073305;28;20072;-84
2022/07/23 10:27:55;;;;;;;11.65;8.10;;;;;;;37.09;34.10;99749.47;5056199;28;20392;-84
2022/07/23 10:31:05;;;;;;;10.88;9.80;;;;;;;36.79;29.62;99740.44;5073465;28;20037;-85
2022/07/23 10:33:39;;;;;;;11.88;10.77;;;;;;;37.08;29.30;99742.19;4994949;28;20053;-80
2022/07/23 10:36:09;;;;;;;11.77;10.57;;;;;;;37.28;29.11;99738.38;5011926;28;20041;-81
2022/07/23 10:39:05;;;;;;;13.38;11.00;;;;;;;37.49;29.29;99751.16;5030644;28;20080;-81
2022/07/23 10:41:35;;;;;;;12.25;11.15;;;;;;;37.61;28.64;99751.88;5052467;28;20047;-81
2022/07/23 10:44:16;;;;;;;13.95;12.73;;;;;;;37.14;27.45;99746.19;5072246;28;20049;-81
2022/07/23 10:49:42;;;;;;;13.25;11.95;;;;;;;37.54;26.78;99736.28;5073410;28;20040;-81
2022/07/23 10:52:14;;;;;;;13.50;12.30;;;;;;;36.78;27.72;99729.50;5072542;28;20063;-84
2022/07/23 10:54:49;;;;;;;14.23;12.82;;;;;;;36.66;28.13;99726.63;5072958;28;20469;-84
2022/07/23 10:57:15;;;;;;;14.25;12.75;;;;;;;36.51;28.59;99735.00;5073628;28;20478;-84
2022/07/23 11:00:09;;;;;;;13.95;12.52;;;;;;;36.76;28.44;99724.31;5055089;28;20112;-84
2022/07/23 11:02:36;;;;;;;14.43;13.02;;;;;;;36.91;27.86;99723.84;5055470;28;20126;-84
2022/07/23 11:05:06;;;;;;;13.30;12.05;;;;;;;36.51;28.44;99715.53;5055141;28;20044;-84
2022/07/23 11:07:31;;;;;;;14.15;12.82;;;;;;;36.75;29.15;99716.31;5073422;28;20087;-84
2022/07/23 11:09:58;;;;;;;13.70;12.50;;;;;;;37.41;28.25;99710.16;5072583;28;20364;-81
2022/07/23 11:12:29;;;;;;;13.70;12.60;;;;;;;37.85;27.84;99709.09;5073093;28;20120;-81
2022/07/23 11:15:11;;;;;;;13.03;11.70;;;;;;;37.90;28.38;99705.78;5072238;28;20044;-81
2022/07/23 11:17:39;;;;;;;;;;;;;;;37.14;28.28;99707.84;5073345;28;20139;-81
2022/07/23 11:20:15;;;;;;;14.38;12.88;;;;;;;37.21;28.29;99692.34;5071607;28;20377;-81
2022/07/23 11:22:43;;;;;;;13.68;12.48;;;;;;;37.46;28.12;99691.63;5072536;28;20448;-81
2022/07/23 11:25:14;;;;;;;15.10;13.70;;;;;;;37.66;27.09;99696.47;5072248;28;20461;-81
2022/07/23 11:27:44;;;;;;;15.95;14.65;;;;;;;37.51;26.00;99694.16;5072877;28;20048;-81
2022/07/23 11:30:29;;;;;;;14.70;13.27;;;;;;;37.64;26.95;99689.84;5072229;28;20055;-80
2022/07/23 11:33:07;;;;;;;14.77;13.20;;;;;;;37.65;26.46;99682.66;5072944;28;20075;-81
2022/07/23 11:35:37;;;;;;;13.43;12.43;;;;;;;37.97;25.50;99677.97;5072301;28;20105;-81
2022/07/23 11:38:14;;;;;;;14.07;12.68;;;;;;;37.38;26.93;99684.00;5072563;28;20051;-81
2022/07/23 11:40:41;;;;;;;14.48;12.38;;;;;;;37.11;27.14;99680.19;5072269;28;20047;-81
2022/07/23 11:43:09;;;;;;;13.55;12.15;;;;;;;37.64;27.17;99676.13;5072555;28;20043;-81
2022/07/23 11:45:45;;;;;;;12.80;11.55;;;;;;;37.11;26.61;99671.53;5071212;28;20051;-81
2022/07/23 11:48:22;;;;;;;13.68;12.05;;;;;;;37.01;26.50;99662.97;5072343;28;20052;-81
2022/07/23 11:50:49;;;;;;;13.73;12.57;;;;;;;37.42;26.06;99666.13;5072245;28;20674;-81
2022/07/23 11:53:22;;;;;;;13.93;12.60;;;;;;;37.14;26.19;99664.47;5071215;28;20060;-81
2022/07/23 11:55:47;;;;;;;14.18;12.77;;;;;;;36.83;26.13;99659.75;5072190;28;20051;-81
2022/07/23 11:58:13;;;;;;;14.35;13.10;;;;;;;37.15;26.10;99663.09;5071682;28;20041;-81
2022/07/23 12:00:40;;;;;;;14.48;13.18;;;;;;;37.26;27.12;99659.41;5071853;28;20040;-81
2022/07/23 12:03:06;;;;;;;14.65;13.18;;;;;;;36.98;27.33;99641.09;5072068;28;20040;-81
2022/07/23 12:05:35;;;;;;;14.60;13.40;;;;;;;36.98;27.67;99657.69;5071023;28;20033;-81
2022/07/23 12:08:04;;;;;;;15.23;13.63;;;;;;;36.83;27.07;99648.19;5072236;28;20032;-81
2022/07/23 12:10:34;;;;;;;15.02;13.57;;;;;;;36.89;27.89;99642.75;5053312;28;20048;-81
2022/07/23 12:13:02;;;;;;;15.93;14.43;;;;;;;37.19;25.43;99637.31;5072042;28;20035;-81
2022/07/23 12:15:32;;;;;;;16.38;14.90;;;;;;;37.01;25.43;99650.63;5071396;28;20051;-81
2022/07/23 12:18:02;;;;;;;16.25;14.85;;;;;;;37.17;25.57;99645.84;5071732;28;20402;-81
2022/07/23 12:20:30;;;;;;;15.27;13.85;;;;;;;37.15;26.16;99628.38;5071414;28;20566;-81
2022/07/23 12:23:01;;;;;;;15.45;14.05;;;;;;;37.27;26.39;99632.00;5071729;28;20032;-81